sensor_id;sensor_type;location;lat;lon;timestamp;pressure;altitude;pressure_sealevel;temperature;humidity
13734;BME280;43298;52.560;13.508;2024-03-22T00:01:52;99545.22;;;8.29;100.00
13734;BME280;43298;52.560;13.508;2024-03-22T00:04:19;99539.22;;;8.28;100.00
13734;BME280;43298;52.560;13.508;2024-03-22T00:06:47;99527.94;;;8.31;100.00
13734;BME280;43298;52.560;13.508;2024-03-22T00:09:14;99531.41;;;8.30;100.00
13734;BME280;43298;52.560;13.508;2024-03-22T00:11:41;99522.78;;;8.31;100.00
13734;BME280;43298;52.560;13.508;2024-03-22T00:14:07;99517.78;;;8.28;100.00
13734;BME280;43298;52.560;13.508;2024-03-22T00:16:34;99518.63;;;8.28;100.00
13734;BME280;43298;52.560;13.508;2024-03-22T00:19:01;99514.47;;;8.26;100.00
13734;BME280;43298;52.560;13.508;2024-03-22T00:21:27;99522.34;;;8.23;100.00
13734;BME280;43298;52.560;13.508;2024-03-22T00:23:53;99515.53;;;8.22;100.00
13734;BME280;43298;52.560;13.508;2024-03-22T00:26:19;99511.19;;;8.22;100.00
13734;BME280;43298;52.560;13.508;2024-03-22T00:28:45;99502.59;;;8.23;100.00
13734;BME280;43298;52.560;13.508;2024-03-22T00:31:11;99501.75;;;8.23;100.00
13734;BME280;43298;52.560;13.508;2024-03-22T00:33:37;99505.44;;;8.17;100.00
13734;BME280;43298;52.560;13.508;2024-03-22T00:36:03;99495.28;;;8.14;100.00
13734;BME280;43298;52.560;13.508;2024-03-22T00:38:29;99496.22;;;8.13;100.00
13734;BME280;43298;52.560;13.508;2024-03-22T00:40:55;99488.41;;;8.15;100.00
13734;BME280;43298;52.560;13.508;2024-03-22T00:43:21;99485.00;;;8.14;100.00
13734;BME280;43298;52.560;13.508;2024-03-22T00:45:47;99491.13;;;8.12;100.00
13734;BME280;43298;52.560;13.508;2024-03-22T00:48:13;99487.06;;;8.08;100.00
13734;BME280;43298;52.560;13.508;2024-03-22T00:50:39;99489.63;;;8.08;100.00
13734;BME280;43298;52.560;13.508;2024-03-22T00:53:05;99489.41;;;8.12;100.00
13734;BME280;43298;52.560;13.508;2024-03-22T00:55:32;99491.78;;;8.15;100.00
13734;BME280;43298;52.560;13.508;2024-03-22T00:57:58;99478.03;;;8.16;100.00
13734;BME280;43298;52.560;13.508;2024-03-22T01:00:24;99471.03;;;8.18;100.00
13734;BME280;43298;52.560;13.508;2024-03-22T01:02:50;99468.34;;;8.21;100.00
13734;BME280;43298;52.560;13.508;2024-03-22T01:05:17;99467.44;;;8.22;100.00
13734;BME280;43298;52.560;13.508;2024-03-22T01:07:43;99462.19;;;8.24;100.00
13734;BME280;43298;52.560;13.508;2024-03-22T01:10:10;99455.16;;;8.27;100.00
13734;BME280;43298;52.560;13.508;2024-03-22T01:12:37;99455.88;;;8.29;100.00
13734;BME280;43298;52.560;13.508;2024-03-22T01:15:04;99451.44;;;8.33;100.00
13734;BME280;43298;52.560;13.508;2024-03-22T01:17:30;99441.13;;;8.33;100.00
13734;BME280;43298;52.560;13.508;2024-03-22T01:19:56;99440.13;;;8.35;100.00
13734;BME280;43298;52.560;13.508;2024-03-22T01:22:22;99439.22;;;8.36;100.00
13734;BME280;43298;52.560;13.508;2024-03-22T01:24:49;99443.53;;;8.36;100.00
13734;BME280;43298;52.560;13.508;2024-03-22T01:27:15;99440.88;;;8.37;100.00
13734;BME280;43298;52.560;13.508;2024-03-22T01:29:40;99440.03;;;8.37;100.00
13734;BME280;43298;52.560;13.508;2024-03-22T01:32:06;99433.91;;;8.39;100.00
13734;BME280;43298;52.560;13.508;2024-03-22T01:34:32;99435.75;;;8.37;100.00
13734;BME280;43298;52.560;13.508;2024-03-22T01:37:00;99437.47;;;8.37;100.00
13734;BME280;43298;52.560;13.508;2024-03-22T01:39:26;99432.41;;;8.35;100.00
13734;BME280;43298;52.560;13.508;2024-03-22T01:41:52;99428.16;;;8.34;100.00
13734;BME280;43298;52.560;13.508;2024-03-22T01:44:18;99429.91;;;8.34;100.00
13734;BME280;43298;52.560;13.508;2024-03-22T01:46:45;99418.78;;;8.33;100.00
13734;BME280;43298;52.560;13.508;2024-03-22T01:49:13;99417.09;;;8.32;100.00
13734;BME280;43298;52.560;13.508;2024-03-22T01:51:40;99417.09;;;8.32;100.00
13734;BME280;43298;52.560;13.508;2024-03-22T01:54:09;99410.22;;;8.33;100.00
13734;BME280;43298;52.560;13.508;2024-03-22T01:56:39;99406.00;;;8.32;100.00
13734;BME280;43298;52.560;13.508;2024-03-22T01:59:05;99399.16;;;8.31;100.00
13734;BME280;43298;52.560;13.508;2024-03-22T02:01:32;99400.94;;;8.30;100.00
13734;BME280;43298;52.560;13.508;2024-03-22T02:03:58;99405.31;;;8.28;100.00
13734;BME280;43298;52.560;13.508;2024-03-22T02:06:24;99394.09;;;8.29;100.00
13734;BME280;43298;52.560;13.508;2024-03-22T02:08:50;99392.44;;;8.28;100.00
13734;BME280;43298;52.560;13.508;2024-03-22T02:11:16;99387.28;;;8.28;100.00
13734;BME280;43298;52.560;13.508;2024-03-22T02:13:42;99386.56;;;8.26;100.00
13734;BME280;43298;52.560;13.508;2024-03-22T02:16:11;99381.41;;;8.26;100.00
13734;BME280;43298;52.560;13.508;2024-03-22T02:18:37;99379.72;;;8.25;100.00
13734;BME280;43298;52.560;13.508;2024-03-22T02:21:03;99374.72;;;8.22;100.00
13734;BME280;43298;52.560;13.508;2024-03-22T02:23:39;99368.78;;;8.22;100.00
13734;BME280;43298;52.560;13.508;2024-03-22T02:26:06;99367.16;;;8.19;100.00
13734;BME280;43298;52.560;13.508;2024-03-22T02:28:34;99357.03;;;8.16;100.00
13734;BME280;43298;52.560;13.508;2024-03-22T02:31:02;99354.44;;;8.16;100.00
13734;BME280;43298;52.560;13.508;2024-03-22T02:33:28;99346.66;;;8.18;100.00
13734;BME280;43298;52.560;13.508;2024-03-22T02:35:54;99323.56;;;8.16;100.00
13734;BME280;43298;52.560;13.508;2024-03-22T02:38:20;99323.47;;;8.18;100.00
13734;BME280;43298;52.560;13.508;2024-03-22T02:40:48;99320.97;;;8.16;100.00
13734;BME280;43298;52.560;13.508;2024-03-22T02:43:14;99313.34;;;8.15;100.00
13734;BME280;43298;52.560;13.508;2024-03-22T02:45:40;99312.50;;;8.14;100.00
13734;BME280;43298;52.560;13.508;2024-03-22T02:48:06;99299.47;;;8.17;100.00
13734;BME280;43298;52.560;13.508;2024-03-22T02:50:34;99299.53;;;8.16;100.00
13734;BME280;43298;52.560;13.508;2024-03-22T02:53:00;99300.22;;;8.19;100.00
13734;BME280;43298;52.560;13.508;2024-03-22T02:55:25;99300.22;;;8.19;100.00
13734;BME280;43298;52.560;13.508;2024-03-22T02:57:51;99294.16;;;8.20;100.00
13734;BME280;43298;52.560;13.508;2024-03-22T03:00:17;99299.16;;;8.23;100.00
13734;BME280;43298;52.560;13.508;2024-03-22T03:02:45;99290.59;;;8.23;100.00
13734;BME280;43298;52.560;13.508;2024-03-22T03:05:11;99290.50;;;8.24;100.00
13734;BME280;43298;52.560;13.508;2024-03-22T03:07:37;99285.38;;;8.24;100.00
13734;BME280;43298;52.560;13.508;2024-03-22T03:10:03;99287.94;;;8.24;100.00
13734;BME280;43298;52.560;13.508;2024-03-22T03:12:28;99285.38;;;8.24;100.00
13734;BME280;43298;52.560;13.508;2024-03-22T03:14:54;99281.13;;;8.23;100.00
13734;BME280;43298;52.560;13.508;2024-03-22T03:17:20;99275.06;;;8.24;100.00
13734;BME280;43298;52.560;13.508;2024-03-22T03:19:46;99273.41;;;8.23;100.00
13734;BME280;43298;52.560;13.508;2024-03-22T03:22:12;99270.91;;;8.22;100.00
13734;BME280;43298;52.560;13.508;2024-03-22T03:24:37;99266.75;;;8.19;100.00
13734;BME280;43298;52.560;13.508;2024-03-22T03:27:03;99263.41;;;8.17;100.00
13734;BME280;43298;52.560;13.508;2024-03-22T03:29:29;99258.44;;;8.14;100.00
13734;BME280;43298;52.560;13.508;2024-03-22T03:31:55;99256.63;;;8.16;100.00
13734;BME280;43298;52.560;13.508;2024-03-22T03:34:20;99246.16;;;8.19;100.00
13734;BME280;43298;52.560;13.508;2024-03-22T03:36:47;99240.84;;;8.22;100.00
13734;BME280;43298;52.560;13.508;2024-03-22T03:39:13;99235.69;;;8.22;100.00
13734;BME280;43298;52.560;13.508;2024-03-22T03:41:39;99237.38;;;8.23;100.00
13734;BME280;43298;52.560;13.508;2024-03-22T03:44:05;99244.94;;;8.26;100.00
13734;BME280;43298;52.560;13.508;2024-03-22T03:46:31;99242.16;;;8.29;100.00
13734;BME280;43298;52.560;13.508;2024-03-22T03:48:57;99244.81;;;8.28;100.00
13734;BME280;43298;52.560;13.508;2024-03-22T03:51:22;99251.56;;;8.30;100.00
13734;BME280;43298;52.560;13.508;2024-03-22T03:53:48;99238.69;;;8.30;100.00
13734;BME280;43298;52.560;13.508;2024-03-22T03:56:14;99233.53;;;8.30;100.00
13734;BME280;43298;52.560;13.508;2024-03-22T03:58:40;99228.56;;;8.27;100.00
13734;BME280;43298;52.560;13.508;2024-03-22T04:01:09;99238.84;;;8.27;100.00
13734;BME280;43298;52.560;13.508;2024-03-22T04:03:35;99237.38;;;8.23;100.00
13734;BME280;43298;52.560;13.508;2024-03-22T04:06:01;99241.69;;;8.23;100.00
13734;BME280;43298;52.560;13.508;2024-03-22T04:08:28;99228.81;;;8.23;100.00
13734;BME280;43298;52.560;13.508;2024-03-22T04:10:55;99225.22;;;8.25;100.00
13734;BME280;43298;52.560;13.508;2024-03-22T04:13:25;99216.47;;;8.28;100.00
13734;BME280;43298;52.560;13.508;2024-03-22T04:15:52;99209.44;;;8.31;100.00
13734;BME280;43298;52.560;13.508;2024-03-22T04:18:17;99200.63;;;8.35;100.00
13734;BME280;43298;52.560;13.508;2024-03-22T04:20:53;99203.19;;;8.35;100.00
13734;BME280;43298;52.560;13.508;2024-03-22T04:23:19;99210.19;;;8.33;100.00
13734;BME280;43298;52.560;13.508;2024-03-22T04:25:56;99209.44;;;8.31;100.00
13734;BME280;43298;52.560;13.508;2024-03-22T04:28:22;99200.06;;;8.30;100.00
13734;BME280;43298;52.560;13.508;2024-03-22T04:33:21;99194.22;;;8.27;100.00
13734;BME280;43298;52.560;13.508;2024-03-22T04:35:47;99189.09;;;8.27;100.00
13734;BME280;43298;52.560;13.508;2024-03-22T04:38:13;99177.84;;;8.28;100.00
13734;BME280;43298;52.560;13.508;2024-03-22T04:40:40;99184.69;;;8.29;100.00
13734;BME280;43298;52.560;13.508;2024-03-22T04:43:06;99176.78;;;8.32;100.00
13734;BME280;43298;52.560;13.508;2024-03-22T04:45:32;99163.63;;;8.36;100.00
13734;BME280;43298;52.560;13.508;2024-03-22T04:47:58;99156.81;;;8.35;100.00
13734;BME280;43298;52.560;13.508;2024-03-22T04:50:23;99155.81;;;8.38;100.00
13734;BME280;43298;52.560;13.508;2024-03-22T04:52:49;99149.78;;;8.39;100.00
13734;BME280;43298;52.560;13.508;2024-03-22T04:55:15;99147.84;;;8.42;100.00
13734;BME280;43298;52.560;13.508;2024-03-22T04:57:41;99155.56;;;8.42;100.00
13734;BME280;43298;52.560;13.508;2024-03-22T05:00:07;99164.13;;;8.43;100.00
13734;BME280;43298;52.560;13.508;2024-03-22T05:02:34;99149.41;;;8.45;100.00
13734;BME280;43298;52.560;13.508;2024-03-22T05:05:00;99156.09;;;8.47;100.00
13734;BME280;43298;52.560;13.508;2024-03-22T05:07:26;99160.38;;;8.48;100.00
13734;BME280;43298;52.560;13.508;2024-03-22T05:09:51;99155.22;;;8.48;100.00
13734;BME280;43298;52.560;13.508;2024-03-22T05:12:17;99162.00;;;8.49;100.00
13734;BME280;43298;52.560;13.508;2024-03-22T05:14:44;99159.44;;;8.49;100.00
13734;BME280;43298;52.560;13.508;2024-03-22T05:17:09;99156.88;;;8.49;100.00
13734;BME280;43298;52.560;13.508;2024-03-22T05:19:35;99156.03;;;8.49;100.00
13734;BME280;43298;52.560;13.508;2024-03-22T05:22:01;99156.22;;;8.46;100.00
13734;BME280;43298;52.560;13.508;2024-03-22T05:24:27;99154.47;;;8.46;100.00
13734;BME280;43298;52.560;13.508;2024-03-22T05:26:53;99144.25;;;8.45;100.00
13734;BME280;43298;52.560;13.508;2024-03-22T05:29:19;99151.06;;;8.46;100.00
13734;BME280;43298;52.560;13.508;2024-03-22T05:31:49;99148.50;;;8.46;100.00
13734;BME280;43298;52.560;13.508;2024-03-22T05:34:17;99146.72;;;8.46;100.00
13734;BME280;43298;52.560;13.508;2024-03-22T05:36:43;99141.41;;;8.49;100.00
13734;BME280;43298;52.560;13.508;2024-03-22T05:39:09;99141.06;;;8.55;100.00
13734;BME280;43298;52.560;13.508;2024-03-22T05:41:38;99136.63;;;8.57;100.00
13734;BME280;43298;52.560;13.508;2024-03-22T05:44:04;99136.44;;;8.60;100.00
13734;BME280;43298;52.560;13.508;2024-03-22T05:46:31;99139.59;;;8.65;100.00
13734;BME280;43298;52.560;13.508;2024-03-22T05:48:57;99134.16;;;8.70;100.00
13734;BME280;43298;52.560;13.508;2024-03-22T05:51:25;99126.34;;;8.71;100.00
13734;BME280;43298;52.560;13.508;2024-03-22T05:53:51;99121.00;;;8.74;100.00
13734;BME280;43298;52.560;13.508;2024-03-22T05:56:16;99114.38;;;8.84;100.00
13734;BME280;43298;52.560;13.508;2024-03-22T05:58:42;99107.09;;;8.91;100.00
13734;BME280;43298;52.560;13.508;2024-03-22T06:01:08;99106.63;;;8.98;100.00
13734;BME280;43298;52.560;13.508;2024-03-22T06:03:34;99106.38;;;9.03;100.00
13734;BME280;43298;52.560;13.508;2024-03-22T06:06:00;99096.50;;;9.09;100.00
13734;BME280;43298;52.560;13.508;2024-03-22T06:08:26;99104.56;;;9.17;100.00
13734;BME280;43298;52.560;13.508;2024-03-22T06:10:56;99111.00;;;9.24;100.00
13734;BME280;43298;52.560;13.508;2024-03-22T06:13:21;99100.31;;;9.31;100.00
13734;BME280;43298;52.560;13.508;2024-03-22T06:15:50;99108.59;;;9.36;100.00
13734;BME280;43298;52.560;13.508;2024-03-22T06:18:16;99112.72;;;9.38;100.00
13734;BME280;43298;52.560;13.508;2024-03-22T06:20:43;99107.38;;;9.41;100.00
13734;BME280;43298;52.560;13.508;2024-03-22T06:23:09;99109.84;;;9.43;100.00
13734;BME280;43298;52.560;13.508;2024-03-22T06:25:36;99117.50;;;9.44;100.00
13734;BME280;43298;52.560;13.508;2024-03-22T06:28:02;99120.91;;;9.45;100.00
13734;BME280;43298;52.560;13.508;2024-03-22T06:30:28;99131.25;;;9.45;100.00
13734;BME280;43298;52.560;13.508;2024-03-22T06:32:54;99142.19;;;9.48;100.00
13734;BME280;43298;52.560;13.508;2024-03-22T06:35:23;99144.75;;;9.48;100.00
13734;BME280;43298;52.560;13.508;2024-03-22T06:37:49;99144.03;;;9.46;100.00
13734;BME280;43298;52.560;13.508;2024-03-22T06:40:16;99159.22;;;9.51;100.00
13734;BME280;43298;52.560;13.508;2024-03-22T06:42:42;99165.88;;;9.55;100.00
13734;BME280;43298;52.560;13.508;2024-03-22T06:45:08;99169.81;;;9.60;100.00
13734;BME280;43298;52.560;13.508;2024-03-22T06:47:34;99173.13;;;9.62;100.00
13734;BME280;43298;52.560;13.508;2024-03-22T06:49:59;99179.38;;;9.58;100.00
13734;BME280;43298;52.560;13.508;2024-03-22T06:52:25;99195.53;;;9.62;100.00
13734;BME280;43298;52.560;13.508;2024-03-22T06:54:51;99205.09;;;9.60;100.00
13734;BME280;43298;52.560;13.508;2024-03-22T06:57:17;99207.59;;;9.61;100.00
13734;BME280;43298;52.560;13.508;2024-03-22T06:59:43;99213.38;;;9.65;100.00
13734;BME280;43298;52.560;13.508;2024-03-22T07:02:09;99202.69;;;9.71;100.00
13734;BME280;43298;52.560;13.508;2024-03-22T07:04:35;99210.94;;;9.76;100.00
13734;BME280;43298;52.560;13.508;2024-03-22T07:07:01;99208.94;;;9.81;100.00
13734;BME280;43298;52.560;13.508;2024-03-22T07:09:27;99211.31;;;9.84;100.00
13734;BME280;43298;52.560;13.508;2024-03-22T07:11:55;99218.75;;;9.88;100.00
13734;BME280;43298;52.560;13.508;2024-03-22T07:14:21;99221.06;;;9.93;100.00
13734;BME280;43298;52.560;13.508;2024-03-22T07:16:50;99217.91;;;10.02;100.00
13734;BME280;43298;52.560;13.508;2024-03-22T07:19:16;99216.72;;;10.07;100.00
13734;BME280;43298;52.560;13.508;2024-03-22T07:21:42;99222.50;;;10.11;100.00
13734;BME280;43298;52.560;13.508;2024-03-22T07:24:07;99220.09;;;10.08;100.00
13734;BME280;43298;52.560;13.508;2024-03-22T07:26:33;99228.03;;;10.19;100.00
13734;BME280;43298;52.560;13.508;2024-03-22T07:28:59;99214.19;;;10.20;100.00
13734;BME280;43298;52.560;13.508;2024-03-22T07:31:25;99221.47;;;10.13;100.00
13734;BME280;43298;52.560;13.508;2024-03-22T07:33:51;99207.00;;;10.11;100.00
13734;BME280;43298;52.560;13.508;2024-03-22T07:36:18;99213.78;;;9.99;100.00
13734;BME280;43298;52.560;13.508;2024-03-22T07:38:45;99212.09;;;9.98;100.00
13734;BME280;43298;52.560;13.508;2024-03-22T07:41:11;99208.34;;;9.90;100.00
13734;BME280;43298;52.560;13.508;2024-03-22T07:43:36;99208.44;;;9.88;100.00
13734;BME280;43298;52.560;13.508;2024-03-22T07:46:02;99198.75;;;9.92;100.00
13734;BME280;43298;52.560;13.508;2024-03-22T07:48:28;99181.94;;;9.99;100.00
13734;BME280;43298;52.560;13.508;2024-03-22T07:51:01;99167.38;;;10.12;100.00
13734;BME280;43298;52.560;13.508;2024-03-22T07:53:27;99161.78;;;10.18;100.00
13734;BME280;43298;52.560;13.508;2024-03-22T07:55:53;99167.28;;;10.26;100.00
13734;BME280;43298;52.560;13.508;2024-03-22T07:58:19;99157.28;;;10.34;100.00
13734;BME280;43298;52.560;13.508;2024-03-22T08:00:45;99145.19;;;10.47;100.00
13734;BME280;43298;52.560;13.508;2024-03-22T08:03:20;99168.03;;;10.53;100.00
13734;BME280;43298;52.560;13.508;2024-03-22T08:05:45;99158.00;;;10.61;100.00
13734;BME280;43298;52.560;13.508;2024-03-22T08:08:11;99168.06;;;10.65;100.00
13734;BME280;43298;52.560;13.508;2024-03-22T08:10:37;99164.34;;;10.69;100.00
13734;BME280;43298;52.560;13.508;2024-03-22T08:13:03;99160.72;;;10.72;100.00
13734;BME280;43298;52.560;13.508;2024-03-22T08:15:29;99166.81;;;10.71;100.00
13734;BME280;43298;52.560;13.508;2024-03-22T08:17:55;99180.03;;;10.79;100.00
13734;BME280;43298;52.560;13.508;2024-03-22T08:20:24;99188.44;;;10.82;100.00
13734;BME280;43298;52.560;13.508;2024-03-22T08:22:49;99198.69;;;10.84;100.00
13734;BME280;43298;52.560;13.508;2024-03-22T08:25:15;99206.25;;;10.87;100.00
13734;BME280;43298;52.560;13.508;2024-03-22T08:27:46;99201.47;;;10.93;100.00
13734;BME280;43298;52.560;13.508;2024-03-22T08:30:13;99208.94;;;10.98;100.00
13734;BME280;43298;52.560;13.508;2024-03-22T08:32:39;99216.88;;;11.07;100.00
13734;BME280;43298;52.560;13.508;2024-03-22T08:35:05;99219.28;;;11.10;100.00
13734;BME280;43298;52.560;13.508;2024-03-22T08:37:33;99206.75;;;11.17;100.00
13734;BME280;43298;52.560;13.508;2024-03-22T08:39:59;99222.16;;;11.18;100.00
13734;BME280;43298;52.560;13.508;2024-03-22T08:42:25;99214.28;;;11.20;100.00
13734;BME280;43298;52.560;13.508;2024-03-22T08:44:50;99203.22;;;11.18;100.00
13734;BME280;43298;52.560;13.508;2024-03-22T08:47:16;99207.88;;;11.25;100.00
13734;BME280;43298;52.560;13.508;2024-03-22T08:49:42;99214.50;;;11.29;100.00
13734;BME280;43298;52.560;13.508;2024-03-22T08:52:10;99207.13;;;11.36;100.00
13734;BME280;43298;52.560;13.508;2024-03-22T08:54:36;99220.38;;;11.44;100.00
13734;BME280;43298;52.560;13.508;2024-03-22T08:57:01;99225.94;;;11.50;100.00
13734;BME280;43298;52.560;13.508;2024-03-22T08:59:27;99228.22;;;11.55;100.00
13734;BME280;43298;52.560;13.508;2024-03-22T09:01:53;99223.66;;;11.58;100.00
13734;BME280;43298;52.560;13.508;2024-03-22T09:04:19;99223.25;;;11.64;100.00
13734;BME280;43298;52.560;13.508;2024-03-22T09:06:45;99230.50;;;11.72;100.00
13734;BME280;43298;52.560;13.508;2024-03-22T09:09:11;99244.53;;;11.80;100.00
13734;BME280;43298;52.560;13.508;2024-03-22T09:11:37;99253.03;;;11.82;100.00
13734;BME280;43298;52.560;13.508;2024-03-22T09:14:03;99268.38;;;11.85;100.00
13734;BME280;43298;52.560;13.508;2024-03-22T09:16:29;99252.06;;;11.96;100.00
13734;BME280;43298;52.560;13.508;2024-03-22T09:18:56;99258.97;;;12.08;100.00
13734;BME280;43298;52.560;13.508;2024-03-22T09:21:22;99254.66;;;12.19;100.00
13734;BME280;43298;52.560;13.508;2024-03-22T09:23:50;99249.31;;;12.34;100.00
13734;BME280;43298;52.560;13.508;2024-03-22T09:26:16;99256.34;;;12.44;100.00
13734;BME280;43298;52.560;13.508;2024-03-22T09:28:41;99267.28;;;12.48;100.00
13734;BME280;43298;52.560;13.508;2024-03-22T09:31:08;99277.88;;;12.45;100.00
13734;BME280;43298;52.560;13.508;2024-03-22T09:33:34;99289.34;;;12.53;100.00
13734;BME280;43298;52.560;13.508;2024-03-22T09:36:00;99305.81;;;12.65;100.00
13734;BME280;43298;52.560;13.508;2024-03-22T09:38:26;99313.03;;;12.72;100.00
13734;BME280;43298;52.560;13.508;2024-03-22T09:40:52;99325.81;;;12.86;100.00
13734;BME280;43298;52.560;13.508;2024-03-22T09:43:21;99338.56;;;12.89;100.00
13734;BME280;43298;52.560;13.508;2024-03-22T09:45:49;99337.16;;;12.96;100.00
13734;BME280;43298;52.560;13.508;2024-03-22T09:48:17;99361.28;;;12.98;100.00
13734;BME280;43298;52.560;13.508;2024-03-22T09:50:46;99365.00;;;12.94;100.00
13734;BME280;43298;52.560;13.508;2024-03-22T09:53:13;99364.16;;;12.94;100.00
13734;BME280;43298;52.560;13.508;2024-03-22T09:55:46;99377.72;;;12.86;100.00
13734;BME280;43298;52.560;13.508;2024-03-22T09:58:12;99362.97;;;12.87;100.00
13734;BME280;43298;52.560;13.508;2024-03-22T10:00:38;99365.41;;;13.01;100.00
13734;BME280;43298;52.560;13.508;2024-03-22T10:03:04;99368.03;;;13.12;100.00
13734;BME280;43298;52.560;13.508;2024-03-22T10:05:31;99359.56;;;13.10;100.00
13734;BME280;43298;52.560;13.508;2024-03-22T10:07:57;99362.97;;;13.10;100.00
13734;BME280;43298;52.560;13.508;2024-03-22T10:10:23;99354.72;;;13.16;100.00
13734;BME280;43298;52.560;13.508;2024-03-22T10:12:49;99367.44;;;13.08;100.00
13734;BME280;43298;52.560;13.508;2024-03-22T10:15:15;99356.16;;;13.20;100.00
13734;BME280;43298;52.560;13.508;2024-03-22T10:17:42;99348.66;;;13.39;100.00
13734;BME280;43298;52.560;13.508;2024-03-22T10:20:08;99358.91;;;13.41;100.00
13734;BME280;43298;52.560;13.508;2024-03-22T10:23:08;99364.50;;;13.47;100.00
13734;BME280;43298;52.560;13.508;2024-03-22T10:25:34;99363.44;;;13.50;100.00
13734;BME280;43298;52.560;13.508;2024-03-22T10:28:01;99362.03;;;13.68;100.00
13734;BME280;43298;52.560;13.508;2024-03-22T10:30:27;99379.38;;;13.56;100.00
13734;BME280;43298;52.560;13.508;2024-03-22T10:32:53;99386.25;;;13.57;100.00
13734;BME280;43298;52.560;13.508;2024-03-22T10:35:20;99397.81;;;13.64;100.00
13734;BME280;43298;52.560;13.508;2024-03-22T10:37:46;99394.88;;;13.80;100.00
13734;BME280;43298;52.560;13.508;2024-03-22T10:40:12;99394.78;;;14.03;100.00
13734;BME280;43298;52.560;13.508;2024-03-22T10:42:42;99414.97;;;14.11;100.00
13734;BME280;43298;52.560;13.508;2024-03-22T10:45:10;99440.41;;;14.07;100.00
13734;BME280;43298;52.560;13.508;2024-03-22T10:47:38;99447.34;;;14.18;100.00
13734;BME280;43298;52.560;13.508;2024-03-22T10:50:12;99456.03;;;14.29;100.00
13734;BME280;43298;52.560;13.508;2024-03-22T10:52:52;99475.66;;;14.44;100.00
13734;BME280;43298;52.560;13.508;2024-03-22T10:55:32;99494.81;;;14.43;100.00
13734;BME280;43298;52.560;13.508;2024-03-22T10:57:59;99496.69;;;14.52;100.00
13734;BME280;43298;52.560;13.508;2024-03-22T11:00:33;99492.25;;;14.97;100.00
13734;BME280;43298;52.560;13.508;2024-03-22T11:03:02;99518.53;;;15.05;100.00
13734;BME280;43298;52.560;13.508;2024-03-22T11:05:29;99544.44;;;14.95;100.00
13734;BME280;43298;52.560;13.508;2024-03-22T11:08:03;99560.44;;;14.80;100.00
13734;BME280;43298;52.560;13.508;2024-03-22T11:10:35;99552.72;;;14.56;100.00
13734;BME280;43298;52.560;13.508;2024-03-22T11:13:07;99532.19;;;14.42;100.00
13734;BME280;43298;52.560;13.508;2024-03-22T11:15:34;99511.00;;;14.47;100.00
13734;BME280;43298;52.560;13.508;2024-03-22T11:18:00;99485.22;;;14.66;100.00
13734;BME280;43298;52.560;13.508;2024-03-22T11:20:29;99491.13;;;14.57;100.00
13734;BME280;43298;52.560;13.508;2024-03-22T11:22:56;99499.78;;;14.46;100.00
13734;BME280;43298;52.560;13.508;2024-03-22T11:25:22;99490.78;;;14.28;100.00
13734;BME280;43298;52.560;13.508;2024-03-22T11:27:48;99463.59;;;14.32;100.00
13734;BME280;43298;52.560;13.508;2024-03-22T11:30:15;99473.97;;;14.10;100.00
13734;BME280;43298;52.560;13.508;2024-03-22T11:32:42;99478.28;;;13.88;100.00
13734;BME280;43298;52.560;13.508;2024-03-22T11:35:11;99453.56;;;13.71;100.00
13734;BME280;43298;52.560;13.508;2024-03-22T11:37:41;99427.53;;;13.60;100.00
13734;BME280;43298;52.560;13.508;2024-03-22T11:40:11;99404.88;;;13.62;100.00
13734;BME280;43298;52.560;13.508;2024-03-22T11:42:42;99392.38;;;13.67;100.00
13734;BME280;43298;52.560;13.508;2024-03-22T11:45:12;99357.56;;;13.70;100.00
13734;BME280;43298;52.560;13.508;2024-03-22T11:47:39;99327.91;;;13.50;100.00
13734;BME280;43298;52.560;13.508;2024-03-22T11:50:05;99301.88;;;13.28;100.00
13734;BME280;43298;52.560;13.508;2024-03-22T11:52:31;99276.84;;;13.16;100.00
13734;BME280;43298;52.560;13.508;2024-03-22T11:54:57;99222.41;;;12.93;100.00
13734;BME280;43298;52.560;13.508;2024-03-22T11:57:24;99136.38;;;12.64;100.00
13734;BME280;43298;52.560;13.508;2024-03-22T11:59:51;99070.47;;;12.45;100.00
13734;BME280;43298;52.560;13.508;2024-03-22T12:02:17;99015.00;;;12.36;100.00
13734;BME280;43298;52.560;13.508;2024-03-22T12:04:46;98973.75;;;12.33;100.00
13734;BME280;43298;52.560;13.508;2024-03-22T12:07:17;98945.00;;;12.25;100.00
13734;BME280;43298;52.560;13.508;2024-03-22T12:09:46;98923.22;;;12.28;100.00
13734;BME280;43298;52.560;13.508;2024-03-22T12:12:13;98895.75;;;12.25;100.00
13734;BME280;43298;52.560;13.508;2024-03-22T12:14:39;98875.63;;;12.29;100.00
13734;BME280;43298;52.560;13.508;2024-03-22T12:17:06;98853.84;;;12.09;100.00
13734;BME280;43298;52.560;13.508;2024-03-22T12:19:33;98835.59;;;11.99;100.00
13734;BME280;43298;52.560;13.508;2024-03-22T12:21:59;98811.94;;;11.93;100.00
13734;BME280;43298;52.560;13.508;2024-03-22T12:24:26;98801.34;;;11.85;100.00
13734;BME280;43298;52.560;13.508;2024-03-22T12:26:55;98788.19;;;11.77;100.00
13734;BME280;43298;52.560;13.508;2024-03-22T12:29:21;98769.00;;;11.68;100.00
13734;BME280;43298;52.560;13.508;2024-03-22T12:31:47;98754.88;;;11.61;100.00
13734;BME280;43298;52.560;13.508;2024-03-22T12:34:13;98738.75;;;11.58;100.00
13734;BME280;43298;52.560;13.508;2024-03-22T12:36:39;98734.59;;;11.44;100.00
13734;BME280;43298;52.560;13.508;2024-03-22T12:39:05;98720.59;;;11.36;100.00
13734;BME280;43298;52.560;13.508;2024-03-22T12:41:32;98700.84;;;11.35;100.00
13734;BME280;43298;52.560;13.508;2024-03-22T12:44:00;98700.75;;;11.36;100.00
13734;BME280;43298;52.560;13.508;2024-03-22T12:46:26;98692.28;;;11.34;100.00